createdAt,value
2019-05-02T00:01:58.535Z,27.30
2019-05-02T00:04:27.093Z,28.10
2019-05-02T00:07:06.041Z,27.20
2019-05-02T00:09:36.676Z,27.23
2019-05-02T00:12:08.003Z,28.90
2019-05-02T00:14:38.648Z,26.87
2019-05-02T00:17:08.632Z,28.97
2019-05-02T00:19:37.135Z,29.83
2019-05-02T00:22:12.215Z,27.70
2019-05-02T00:24:40.969Z,29.23
2019-05-02T00:27:09.338Z,30.30
2019-05-02T00:29:37.994Z,29.97
2019-05-02T00:32:06.501Z,28.00
2019-05-02T00:34:35.038Z,31.13
2019-05-02T00:37:04.223Z,31.27
2019-05-02T00:39:32.629Z,28.43
2019-05-02T00:42:12.117Z,29.80
2019-05-02T00:44:31.284Z,29.50
2019-05-02T00:47:01.381Z,29.60
2019-05-02T00:49:30.863Z,28.80
2019-05-02T00:52:01.388Z,29.60
2019-05-02T00:54:29.782Z,28.30
2019-05-02T00:56:58.276Z,27.03
2019-05-02T00:59:26.709Z,27.53
2019-05-02T01:01:59.965Z,28.63
2019-05-02T01:04:31.375Z,28.80
2019-05-02T01:06:59.866Z,28.40
2019-05-02T01:09:28.747Z,28.27
2019-05-02T01:11:57.219Z,29.43
2019-05-02T01:14:27.133Z,26.97
2019-05-02T01:20:01.348Z,27.73
2019-05-02T01:22:29.755Z,28.40
2019-05-02T01:24:58.273Z,28.07
2019-05-02T01:27:45.806Z,29.27
2019-05-02T01:30:37.279Z,29.37
2019-05-02T01:33:07.777Z,28.60
2019-05-02T01:35:37.930Z,28.63
2019-05-02T01:38:26.550Z,30.27
2019-05-02T01:40:54.734Z,31.13
2019-05-02T01:43:31.959Z,30.37
2019-05-02T01:46:00.503Z,31.07
2019-05-02T01:48:29.053Z,30.80
2019-05-02T01:50:57.476Z,30.67
2019-05-02T01:53:29.183Z,30.27
2019-05-02T01:55:57.758Z,30.97
2019-05-02T01:58:26.289Z,30.63
2019-05-02T02:00:54.716Z,31.77
2019-05-02T02:03:23.191Z,31.73
2019-05-02T02:05:51.632Z,32.77
2019-05-02T02:08:20.045Z,32.80
2019-05-02T02:10:50.712Z,31.07
2019-05-02T02:13:19.004Z,31.33
2019-05-02T02:15:47.703Z,30.30
2019-05-02T02:18:17.201Z,31.17
2019-05-02T02:21:02.199Z,31.27
2019-05-02T02:23:44.977Z,31.63
2019-05-02T02:26:15.806Z,31.30
2019-05-02T02:28:44.292Z,30.67
2019-05-02T02:31:12.721Z,30.37
2019-05-02T02:33:47.661Z,30.67
2019-05-02T02:36:11.394Z,30.37
2019-05-02T02:38:39.819Z,30.63
2019-05-02T02:41:12.922Z,30.30
2019-05-02T02:43:38.445Z,29.37
2019-05-02T02:46:08.527Z,30.13
2019-05-02T02:48:40.542Z,28.93
2019-05-02T02:51:07.876Z,30.57
2019-05-02T02:53:36.305Z,29.23
2019-05-02T02:56:07.210Z,29.70
2019-05-02T02:58:44.605Z,28.67
2019-05-02T03:01:05.911Z,28.57
2019-05-02T03:03:35.451Z,29.37
2019-05-02T03:06:05.514Z,28.33
2019-05-02T03:08:44.584Z,29.80
2019-05-02T03:11:04.826Z,28.07
2019-05-02T03:13:51.160Z,28.93
2019-05-02T03:16:18.302Z,28.00
2019-05-02T03:18:46.801Z,28.73
2019-05-02T03:21:20.914Z,28.30
2019-05-02T03:23:45.396Z,27.07
2019-05-02T03:26:15.465Z,26.40
2019-05-02T03:28:44.037Z,27.53
2019-05-02T03:31:23.918Z,27.00
2019-05-02T03:33:54.273Z,25.73
2019-05-02T03:36:29.304Z,25.53
2019-05-02T03:38:43.822Z,25.07
2019-05-02T03:41:13.119Z,26.07
2019-05-02T03:43:43.319Z,27.27
2019-05-02T03:46:13.518Z,26.83
2019-05-02T03:48:41.902Z,24.70
2019-05-02T03:51:19.881Z,27.30
2019-05-02T03:53:40.544Z,26.83
2019-05-02T03:56:11.541Z,28.57
2019-05-02T03:58:39.353Z,27.80
2019-05-02T04:01:07.843Z,29.07
2019-05-02T04:03:41.092Z,29.77
2019-05-02T04:06:06.593Z,27.10
2019-05-02T04:08:36.488Z,28.87
2019-05-02T04:11:16.538Z,28.87
2019-05-02T04:13:45.034Z,29.63
2019-05-02T04:16:15.469Z,27.97
2019-05-02T04:18:54.446Z,25.27
2019-05-02T04:21:14.538Z,27.07
2019-05-02T04:23:43.006Z,27.20
2019-05-02T04:26:14.352Z,27.43
2019-05-02T04:28:45.635Z,26.73
2019-05-02T04:31:13.788Z,27.17
2019-05-02T04:33:42.329Z,28.40
2019-05-02T04:36:15.173Z,29.37
2019-05-02T04:38:47.056Z,28.93
2019-05-02T04:41:11.518Z,28.00
2019-05-02T04:43:50.362Z,27.07
2019-05-02T04:46:17.937Z,25.43
2019-05-02T04:48:48.696Z,25.33
2019-05-02T04:51:16.526Z,23.43
2019-05-02T04:53:45.008Z,20.70
2019-05-02T04:56:11.108Z,21.27
2019-05-02T04:58:40.758Z,22.23
2019-05-02T05:01:10.242Z,21.70
2019-05-02T05:03:38.967Z,21.93
2019-05-02T05:06:12.195Z,22.27
2019-05-02T05:08:38.912Z,21.10
2019-05-02T05:11:08.006Z,20.30
2019-05-02T05:13:37.448Z,20.67
2019-05-02T05:16:08.154Z,22.37
2019-05-02T05:18:37.821Z,22.70
2019-05-02T05:21:10.332Z,24.17
2019-05-02T05:23:38.311Z,23.33
2019-05-02T05:26:07.318Z,23.27
2019-05-02T05:28:42.708Z,20.97
2019-05-02T05:31:07.702Z,22.60
2019-05-02T05:33:37.756Z,24.13
2019-05-02T05:36:08.240Z,21.43
2019-05-02T05:38:40.426Z,22.13
2019-05-02T05:41:11.165Z,22.30
2019-05-02T05:43:38.128Z,21.77
2019-05-02T05:46:10.685Z,23.20
2019-05-02T05:48:40.759Z,23.13
2019-05-02T05:51:07.490Z,21.90
2019-05-02T05:53:37.684Z,21.77
2019-05-02T05:56:07.929Z,22.40
2019-05-02T05:58:39.799Z,24.20
2019-05-02T06:01:09.829Z,22.20
2019-05-02T06:03:41.894Z,23.37
2019-05-02T06:06:08.274Z,23.37
2019-05-02T06:08:37.096Z,23.00
2019-05-02T06:11:05.548Z,22.47
2019-05-02T06:13:33.987Z,22.93
2019-05-02T06:16:03.495Z,22.70
2019-05-02T06:18:36.238Z,23.13
2019-05-02T06:21:03.230Z,23.70
2019-05-02T06:23:36.378Z,22.47
2019-05-02T06:26:07.773Z,25.57
2019-05-02T06:28:36.202Z,24.43
2019-05-02T06:31:07.243Z,24.67
2019-05-02T06:33:33.543Z,23.53
2019-05-02T06:36:02.538Z,24.27
2019-05-02T06:38:31.193Z,23.47
2019-05-02T06:40:59.628Z,23.03
2019-05-02T06:43:28.122Z,23.87
2019-05-02T06:45:56.536Z,24.83
2019-05-02T06:48:24.993Z,24.03
2019-05-02T06:50:53.403Z,23.17
2019-05-02T06:53:21.812Z,25.13
2019-05-02T06:55:50.253Z,24.87
2019-05-02T06:58:18.678Z,24.23
2019-05-02T07:00:57.473Z,24.67
2019-05-02T07:03:17.436Z,24.00
2019-05-02T07:05:48.909Z,24.67
2019-05-02T07:08:16.224Z,23.77
2019-05-02T07:10:45.292Z,25.07
2019-05-02T07:13:15.023Z,23.17
2019-05-02T07:15:48.556Z,23.80
2019-05-02T07:18:23.873Z,23.17
2019-05-02T07:20:52.491Z,25.87
2019-05-02T07:23:20.916Z,25.77
2019-05-02T07:25:49.416Z,24.37
2019-05-02T07:28:17.903Z,25.53
2019-05-02T07:30:46.468Z,25.80
2019-05-02T07:33:14.881Z,25.13
2019-05-02T07:35:43.386Z,26.27
2019-05-02T07:38:11.790Z,25.47
2019-05-02T07:40:40.702Z,25.07
2019-05-02T07:43:13.484Z,26.43
2019-05-02T07:45:40.248Z,25.73
2019-05-02T07:48:12.688Z,26.03
2019-05-02T07:50:41.336Z,25.47
2019-05-02T07:53:13.959Z,26.33
2019-05-02T07:55:40.846Z,24.60
2019-05-02T07:58:10.185Z,24.67
2019-05-02T08:00:38.687Z,25.20
2019-05-02T08:03:07.307Z,26.17
2019-05-02T08:05:35.684Z,25.13
2019-05-02T08:08:04.223Z,25.57
2019-05-02T08:10:32.705Z,24.70
2019-05-02T08:13:01.115Z,24.00
2019-05-02T08:15:29.557Z,25.93
2019-05-02T08:17:58.007Z,24.97
2019-05-02T08:20:26.427Z,25.77
2019-05-02T08:22:54.864Z,26.77
2019-05-02T08:25:23.360Z,26.77
2019-05-02T08:27:56.417Z,26.27
2019-05-02T08:30:26.593Z,26.70
2019-05-02T08:32:55.047Z,26.17
2019-05-02T08:35:23.619Z,27.27
2019-05-02T08:37:52.145Z,26.93
2019-05-02T08:40:20.593Z,28.27
2019-05-02T08:42:49.040Z,26.53
2019-05-02T08:45:17.534Z,28.20
2019-05-02T08:47:45.957Z,27.47
2019-05-02T08:50:14.908Z,27.60
2019-05-02T08:52:44.207Z,28.97
2019-05-02T08:55:13.185Z,28.67
2019-05-02T08:57:41.594Z,29.03
2019-05-02T09:00:12.435Z,29.87
2019-05-02T09:02:42.035Z,31.10
2019-05-02T09:05:11.508Z,29.23
2019-05-02T09:07:42.771Z,29.83
2019-05-02T09:10:11.458Z,30.53
2019-05-02T09:12:42.333Z,30.17
2019-05-02T09:15:11.816Z,33.77
2019-05-02T09:17:46.085Z,31.90
2019-05-02T09:20:18.706Z,33.03
2019-05-02T09:22:41.859Z,33.20
2019-05-02T09:25:12.605Z,33.63
2019-05-02T09:27:42.013Z,32.20
2019-05-02T09:30:17.209Z,33.23
2019-05-02T09:32:42.870Z,30.80
2019-05-02T09:35:11.826Z,31.97
2019-05-02T09:37:41.920Z,32.13
2019-05-02T09:40:16.371Z,32.37
2019-05-02T09:42:42.963Z,30.93
2019-05-02T09:45:16.659Z,31.00
2019-05-02T09:47:55.773Z,31.70
2019-05-02T09:50:20.680Z,31.70
2019-05-02T09:52:47.300Z,31.17
2019-05-02T09:55:17.505Z,30.37
2019-05-02T09:57:46.449Z,30.80
2019-05-02T10:00:26.732Z,30.73
2019-05-02T10:02:53.096Z,30.03
2019-05-02T10:05:23.058Z,29.97
2019-05-02T10:07:52.583Z,30.87
2019-05-02T10:10:21.948Z,32.10
2019-05-02T10:12:52.133Z,30.47
2019-05-02T10:15:22.256Z,30.40
2019-05-02T10:17:51.942Z,28.83
2019-05-02T10:20:23.502Z,28.57
2019-05-02T10:22:52.953Z,29.73
2019-05-02T10:25:23.172Z,30.97
2019-05-02T10:27:52.384Z,28.00
2019-05-02T10:30:23.590Z,30.37
2019-05-02T10:32:57.136Z,30.03
2019-05-02T10:35:28.042Z,30.23
2019-05-02T10:37:54.111Z,28.83
2019-05-02T10:40:22.727Z,29.33
2019-05-02T10:42:52.211Z,27.40
2019-05-02T10:45:22.506Z,28.57
2019-05-02T10:47:52.713Z,29.33
2019-05-02T10:50:25.307Z,28.30
2019-05-02T10:52:53.745Z,28.83
2019-05-02T10:55:24.157Z,28.63
2019-05-02T10:57:52.833Z,27.63
2019-05-02T11:00:24.283Z,28.40
2019-05-02T11:03:12.045Z,27.70
2019-05-02T11:05:42.412Z,27.70
2019-05-02T11:08:12.003Z,27.40
2019-05-02T11:10:42.290Z,30.73
2019-05-02T11:13:12.568Z,27.77
2019-05-02T11:15:59.243Z,28.30
2019-05-02T11:18:40.253Z,27.87
2019-05-02T11:21:06.741Z,28.53
2019-05-02T11:23:29.667Z,27.30
2019-05-02T11:25:58.114Z,29.20
2019-05-02T11:28:26.550Z,27.17
2019-05-02T11:30:56.944Z,28.20
2019-05-02T11:33:25.205Z,29.43
2019-05-02T11:35:53.709Z,28.13
2019-05-02T11:38:45.092Z,26.80
2019-05-02T11:40:52.312Z,27.67
2019-05-02T11:43:22.323Z,27.23
2019-05-02T11:45:55.881Z,27.63
2019-05-02T11:48:22.556Z,28.53
2019-05-02T11:50:52.246Z,27.73
2019-05-02T11:53:28.858Z,27.97
2019-05-02T11:55:53.259Z,27.57
2019-05-02T11:58:22.982Z,28.73
2019-05-02T12:00:52.308Z,28.07
2019-05-02T12:03:22.782Z,28.03
2019-05-02T12:05:52.379Z,28.63
2019-05-02T12:08:22.645Z,28.00
2019-05-02T12:10:52.024Z,28.27
2019-05-02T12:13:22.550Z,28.10
2019-05-02T12:15:51.932Z,27.37
2019-05-02T12:18:23.182Z,29.53
2019-05-02T12:20:51.957Z,28.23
2019-05-02T12:23:22.673Z,29.37
2019-05-02T12:25:52.002Z,28.17
2019-05-02T12:28:22.785Z,29.07
2019-05-02T12:30:51.905Z,29.43
2019-05-02T12:33:22.422Z,29.97
2019-05-02T12:35:52.461Z,28.97
2019-05-02T12:38:22.930Z,28.03
2019-05-02T12:40:52.072Z,28.77
2019-05-02T12:43:22.742Z,28.73
2019-05-02T12:45:52.797Z,29.43
2019-05-02T12:48:22.047Z,29.97
2019-05-02T12:50:52.789Z,26.97
2019-05-02T12:53:21.893Z,28.77
2019-05-02T12:55:52.533Z,28.93
2019-05-02T12:58:21.849Z,28.20
2019-05-02T13:00:52.880Z,27.10
2019-05-02T13:03:40.266Z,26.50
2019-05-02T13:06:08.894Z,29.33
2019-05-02T13:08:49.326Z,29.10
2019-05-02T13:11:22.277Z,26.77
2019-05-02T13:13:53.357Z,27.27
2019-05-02T13:16:22.641Z,27.90
2019-05-02T13:18:51.890Z,27.70
2019-05-02T13:21:24.833Z,27.83
2019-05-02T13:23:54.891Z,28.37
2019-05-02T13:26:27.154Z,27.80
2019-05-02T13:28:53.557Z,29.17
2019-05-02T13:31:26.808Z,27.03
2019-05-02T13:34:11.962Z,27.07
2019-05-02T13:36:51.860Z,27.27
2019-05-02T13:39:28.056Z,24.90
2019-05-02T13:41:56.497Z,25.47
2019-05-02T13:44:43.166Z,25.43
2019-05-02T13:47:13.234Z,26.13
2019-05-02T13:49:53.256Z,26.57
2019-05-02T13:52:11.882Z,27.43
2019-05-02T13:54:40.277Z,28.50
2019-05-02T13:57:08.787Z,27.33
2019-05-02T13:59:37.395Z,26.27
2019-05-02T14:02:07.464Z,28.27
2019-05-02T14:04:35.885Z,27.87
2019-05-02T14:07:07.721Z,27.37
2019-05-02T14:09:36.235Z,28.27
2019-05-02T14:12:11.753Z,28.23
2019-05-02T14:14:42.224Z,28.67
2019-05-02T14:17:11.700Z,28.00
2019-05-02T14:19:42.059Z,28.00
2019-05-02T14:22:12.740Z,28.57
2019-05-02T14:24:42.178Z,29.07
2019-05-02T14:27:12.893Z,28.13
2019-05-02T14:29:42.402Z,27.67
2019-05-02T14:32:21.394Z,29.97
2019-05-02T14:34:45.207Z,29.83
2019-05-02T14:37:13.620Z,28.77
2019-05-02T14:39:43.471Z,29.43
2019-05-02T14:42:15.282Z,27.00
2019-05-02T14:45:03.982Z,28.07
2019-05-02T14:47:17.732Z,28.03
2019-05-02T14:49:42.982Z,28.47
2019-05-02T14:52:12.684Z,29.43
2019-05-02T14:54:43.871Z,29.53
2019-05-02T14:57:17.076Z,29.13
2019-05-02T14:59:43.491Z,27.77
2019-05-02T15:02:13.611Z,29.73
2019-05-02T15:04:44.374Z,28.63
2019-05-02T15:07:12.934Z,29.67
2019-05-02T15:09:41.909Z,29.50
2019-05-02T15:12:17.460Z,29.57
2019-05-02T15:14:40.700Z,30.23
2019-05-02T15:17:09.317Z,29.63
2019-05-02T15:19:37.724Z,29.80
2019-05-02T15:22:06.331Z,30.30
2019-05-02T15:24:37.481Z,31.10
2019-05-02T15:27:11.674Z,30.80
2019-05-02T15:29:35.334Z,30.80
2019-05-02T15:32:17.232Z,32.73
2019-05-02T15:35:05.030Z,35.47
2019-05-02T15:37:35.837Z,35.27
2019-05-02T15:42:36.038Z,34.37
2019-05-02T15:45:06.378Z,35.77
2019-05-02T15:47:37.182Z,36.07
2019-05-02T15:50:06.004Z,35.60
2019-05-02T15:52:36.071Z,35.90
2019-05-02T15:55:07.718Z,38.10
2019-05-02T15:57:42.826Z,37.23
2019-05-02T16:00:09.536Z,36.73
2019-05-02T16:02:37.954Z,36.83
2019-05-02T16:05:11.756Z,37.23
2019-05-02T16:07:43.273Z,37.07
2019-05-02T16:10:13.130Z,37.63
2019-05-02T16:12:43.815Z,37.53
2019-05-02T16:15:21.245Z,39.97
2019-05-02T16:17:45.786Z,38.63
2019-05-02T16:20:20.176Z,37.20
2019-05-02T16:22:49.973Z,39.03
2019-05-02T16:25:20.086Z,39.17
2019-05-02T16:27:49.214Z,37.17
2019-05-02T16:30:23.671Z,37.60
2019-05-02T16:32:53.853Z,37.23
2019-05-02T16:35:23.894Z,38.23
2019-05-02T16:37:56.024Z,39.17
2019-05-02T16:40:29.906Z,39.30
2019-05-02T16:42:53.639Z,39.37
2019-05-02T16:45:23.018Z,39.50
2019-05-02T16:47:58.747Z,39.07
2019-05-02T16:50:22.869Z,37.30
2019-05-02T16:52:53.093Z,39.73
2019-05-02T16:55:26.657Z,38.57
2019-05-02T16:57:56.615Z,38.13
2019-05-02T17:00:24.816Z,39.63
2019-05-02T17:02:53.472Z,38.97
2019-05-02T17:05:22.241Z,42.37
2019-05-02T17:08:10.601Z,40.50
2019-05-02T17:10:42.196Z,39.37
2019-05-02T17:13:12.498Z,40.97
2019-05-02T17:15:42.714Z,40.67
2019-05-02T17:18:13.414Z,42.23
2019-05-02T17:20:41.123Z,42.77
2019-05-02T17:23:09.622Z,41.83
2019-05-02T17:25:38.179Z,42.87
2019-05-02T17:28:10.341Z,42.83
2019-05-02T17:30:39.058Z,43.47
2019-05-02T17:33:12.017Z,43.53
2019-05-02T17:35:43.370Z,41.47
2019-05-02T17:38:09.233Z,40.50
2019-05-02T17:40:37.780Z,39.30
2019-05-02T17:43:06.996Z,38.47
2019-05-02T17:45:38.467Z,38.90
2019-05-02T17:48:08.421Z,39.20
2019-05-02T17:50:44.242Z,37.27
2019-05-02T17:53:12.750Z,36.33
2019-05-02T17:55:44.236Z,37.27
2019-05-02T17:58:14.627Z,35.30
2019-05-02T18:00:54.539Z,35.07
2019-05-02T18:03:24.058Z,35.67
2019-05-02T18:05:49.810Z,33.93
2019-05-02T18:08:18.254Z,33.00
2019-05-02T18:10:50.608Z,31.77
2019-05-02T18:13:16.899Z,33.30
2019-05-02T18:15:45.333Z,33.30
2019-05-02T18:18:13.757Z,31.60
2019-05-02T18:20:46.340Z,32.60
2019-05-02T18:23:12.381Z,31.90
2019-05-02T18:25:40.834Z,33.70
2019-05-02T18:28:14.036Z,32.50
2019-05-02T18:30:41.595Z,31.87
2019-05-02T18:33:09.666Z,30.70
2019-05-02T18:35:45.237Z,31.03
2019-05-02T18:38:08.527Z,30.37
2019-05-02T18:40:36.983Z,31.57
2019-05-02T18:43:05.704Z,30.03
2019-05-02T18:45:34.185Z,29.47
2019-05-02T18:48:06.705Z,29.73
2019-05-02T18:50:43.740Z,30.27
2019-05-02T18:53:09.949Z,28.20
2019-05-02T18:55:38.969Z,28.80
2019-05-02T18:58:09.648Z,27.43
2019-05-02T19:00:39.676Z,28.87
2019-05-02T19:03:13.424Z,28.10
2019-05-02T19:05:42.252Z,28.30
2019-05-02T19:08:12.020Z,29.07
2019-05-02T19:10:44.662Z,29.40
2019-05-02T19:13:12.775Z,28.23
2019-05-02T19:15:45.182Z,29.97
2019-05-02T19:18:17.986Z,29.53
2019-05-02T19:20:56.308Z,30.83
2019-05-02T19:23:22.674Z,29.90
2019-05-02T19:25:52.816Z,31.03
2019-05-02T19:28:23.336Z,30.47
2019-05-02T19:30:52.101Z,31.97
2019-05-02T19:33:21.635Z,32.33
2019-05-02T19:35:52.558Z,32.23
2019-05-02T19:38:24.705Z,32.53
2019-05-02T19:40:52.032Z,33.93
2019-05-02T19:43:22.907Z,34.57
2019-05-02T19:45:53.938Z,32.83
2019-05-02T19:48:22.650Z,32.93
2019-05-02T19:50:51.810Z,33.00
2019-05-02T19:53:20.320Z,32.13
2019-05-02T19:55:48.952Z,32.83
2019-05-02T19:58:17.470Z,33.57
2019-05-02T20:00:46.510Z,32.83
2019-05-02T20:03:21.811Z,32.83
2019-05-02T20:05:48.211Z,31.77
2019-05-02T20:08:22.254Z,33.53
2019-05-02T20:10:49.331Z,36.70
2019-05-02T20:13:20.281Z,37.20
2019-05-02T20:15:47.868Z,34.47
2019-05-02T20:18:16.319Z,31.10
2019-05-02T20:21:02.721Z,26.63
2019-05-02T20:23:35.380Z,16.83
2019-05-02T20:26:01.524Z,15.33
2019-05-02T20:28:31.783Z,12.63
2019-05-02T20:31:01.763Z,12.90
2019-05-02T20:33:32.417Z,12.23
2019-05-02T20:36:01.799Z,11.77
2019-05-02T20:38:32.442Z,11.30
2019-05-02T20:41:02.790Z,11.67
2019-05-02T20:43:32.459Z,10.90
2019-05-02T20:46:07.563Z,11.57
2019-05-02T20:48:36.111Z,11.13
2019-05-02T20:51:04.806Z,11.07
2019-05-02T20:53:34.160Z,11.13
2019-05-02T20:56:02.908Z,11.17
2019-05-02T20:58:32.629Z,11.50
2019-05-02T21:01:06.249Z,12.23
2019-05-02T21:03:32.017Z,12.10
2019-05-02T21:06:05.089Z,11.47
2019-05-02T21:08:47.521Z,11.97
2019-05-02T21:11:16.112Z,10.80
2019-05-02T21:13:44.569Z,11.23
2019-05-02T21:16:13.654Z,11.53
2019-05-02T21:18:42.404Z,11.60
2019-05-02T21:21:12.637Z,12.53
2019-05-02T21:23:47.056Z,13.10
2019-05-02T21:26:11.515Z,11.73
2019-05-02T21:28:40.087Z,9.37
2019-05-02T21:31:08.734Z,8.63
2019-05-02T21:33:39.927Z,7.50
2019-05-02T21:36:08.824Z,7.57
2019-05-02T21:38:37.942Z,7.90
2019-05-02T21:41:09.450Z,7.10
2019-05-02T21:43:37.900Z,6.13
2019-05-02T21:46:06.481Z,5.27
2019-05-02T21:48:35.010Z,4.60
2019-05-02T21:51:12.142Z,4.47
2019-05-02T21:53:58.542Z,4.20
2019-05-02T21:56:44.285Z,4.40
2019-05-02T21:59:13.619Z,5.13
2019-05-02T22:01:55.479Z,3.67
2019-05-02T22:04:24.024Z,3.97
2019-05-02T22:06:52.561Z,3.80
2019-05-02T22:09:23.136Z,3.93
2019-05-02T22:11:52.282Z,4.53
2019-05-02T22:14:22.337Z,3.97
2019-05-02T22:16:52.987Z,3.60
2019-05-02T22:19:21.477Z,3.67
2019-05-02T22:21:52.505Z,3.90
2019-05-02T22:24:21.299Z,4.27
2019-05-02T22:26:52.614Z,4.37
2019-05-02T22:29:21.849Z,3.73
2019-05-02T22:31:52.172Z,4.00
2019-05-02T22:34:22.037Z,4.20
2019-05-02T22:36:53.908Z,3.73
2019-05-02T22:39:38.708Z,3.83
2019-05-02T22:42:07.424Z,4.30
2019-05-02T22:44:35.996Z,4.27
2019-05-02T22:47:04.955Z,4.67
2019-05-02T22:49:34.083Z,4.27
2019-05-02T22:52:02.626Z,4.37
2019-05-02T22:54:33.726Z,4.37
2019-05-02T22:57:02.573Z,4.37
2019-05-02T22:59:31.720Z,4.57
2019-05-02T23:02:01.970Z,4.93
2019-05-02T23:04:32.544Z,4.83
2019-05-02T23:07:02.339Z,3.97
2019-05-02T23:09:31.098Z,4.23
2019-05-02T23:11:59.540Z,3.93
2019-05-02T23:14:27.983Z,3.57
2019-05-02T23:16:56.436Z,4.70
2019-05-02T23:19:24.884Z,4.53
2019-05-02T23:21:53.433Z,4.93
2019-05-02T23:24:40.129Z,4.47
2019-05-02T23:27:11.702Z,4.57
2019-05-02T23:29:42.443Z,4.40
2019-05-02T23:32:10.764Z,5.53
2019-05-02T23:34:39.297Z,5.53
2019-05-02T23:37:07.783Z,5.37
2019-05-02T23:39:36.249Z,5.07
2019-05-02T23:42:04.748Z,5.40
2019-05-02T23:44:33.188Z,5.70
2019-05-02T23:47:02.358Z,6.90
2019-05-02T23:49:32.436Z,6.53
2019-05-02T23:52:02.303Z,5.50
2019-05-02T23:54:32.406Z,5.90
2019-05-02T23:57:01.047Z,6.10
2019-05-02T23:59:31.674Z,7.70
